Perham, Minnesota
Current Conditions -  °F | °C
As of 8:15 PM on Saturday 25 Oct 2014 (Local Time) from KADC Reporting Station
Clear Clear  
Wind Chill: 42°   Ceiling: Unl
Heat Index: 45°   Visibility: 10mi
Dew Point: 27°   Wind: 5mph
Humidity: 49%   Direction: 250°WSW
Pressure: 30.04"   Gusts: NA
Location:  46.59°N, 95.57°W
Report Text: KADC 260115Z AUTO 25004KT 10SM CLR 07/M03 A3004 RMK AO2
Loading
Personal Weather Stations






























Interactive Weather Map
Tropical Storm Tracking
New forecast layout! Learn more

10-Day Weather Forecast

Advertisements
Track Severe Weather on mobile